| Date | Time | Temp. (oF) | Dew Point (oF) | Rel. Hum. (%) | Press. (in.) | Wind Dir. (deg.) | Wind Speed (mph) | Hourly Rainfall (i n.) |
|
|---|---|---|---|---|---|---|---|---|---|
| 1 | 11/26 | 24:00 | 48 | 46 | 94 | 30.23 | 90 | 0 | 0.00 |
| 2 | 11/25 | 23:00 | 48 | 46 | 95 | 30.24 | 90 | 0 | 0.01 |
| 3 | 11/25 | 22:00 | 48 | 46 | 95 | 30.27 | 110 | 1 | 0.02 |
| 4 | 11/25 | 21:00 | 48 | 46 | 94 | 30.29 | 90 | 0 | 0.00 |
| 5 | 11/25 | 20:00 | 48 | 46 | 95 | 30.29 | 90 | 0 | 0.00 |
| 6 | 11/25 | 19:00 | 49 | 47 | 95 | 30.30 | 50 | 1 | 0.01 |
| 7 | 11/25 | 18:00 | 49 | 47 | 93 | 30.30 | 50 | 0 | 0.01 |
| 8 | 11/25 | 17:00 | 49 | 45 | 88 | 30.31 | 50 | 1 | 0.00 |
| 9 | 11/25 | 16:00 | 50 | 45 | 86 | 30.31 | 10 | 2 | 0.00 |
| 10 | 11/25 | 15:00 | 50 | 46 | 87 | 30.30 | 130 | 0 | 0.00 |
| 11 | 11/25 | 14:00 | 51 | 47 | 87 | 30.31 | 70 | 0 | 0.00 |
| 12 | 11/25 | 13:00 | 52 | 46 | 80 | 30.32 | 50 | 2 | 0.00 |
| 13 | 11/25 | 12:00 | 52 | 45 | 79 | 30.33 | 90 | 0 | 0.00 |
| 14 | 11/25 | 11:00 | 52 | 45 | 78 | 30.35 | 50 | 1 | 0.00 |
| 15 | 11/25 | 10:00 | 50 | 45 | 84 | 30.36 | 100 | 1 | 0.00 |
| 16 | 11/25 | 09:00 | 49 | 45 | 89 | 30.35 | 30 | 2 | 0.00 |
| 17 | 11/25 | 08:00 | 49 | 46 | 92 | 30.34 | 300 | 6 | 0.00 |
| 18 | 11/25 | 07:00 | 51 | 49 | 93 | 30.33 | 350 | 1 | 0.01 |
| 19 | 11/25 | 06:00 | 52 | 50 | 93 | 30.31 | 10 | 1 | 0.01 |
| 20 | 11/25 | 05:00 | 53 | 50 | 91 | 30.30 | 310 | 7 | 0.00 |
| 21 | 11/25 | 04:00 | 53 | 50 | 92 | 30.30 | 10 | 4 | 0.00 |
| 22 | 11/25 | 03:00 | 54 | 52 | 94 | 30.31 | 50 | 2 | 0.00 |
| 23 | 11/25 | 02:00 | 58 | 55 | 93 | 30.31 | 140 | 0 | 0.00 |
| 24 | 11/25 | 01:00 | 58 | 55 | 92 | 30.30 | 140 | 0 | 0.00 |